sensor_id;sensor_type;location;lat;lon;timestamp;P1;durP1;ratioP1;P2;durP2;ratioP2
37455;SDS011;23316;50.718;7.328;2023-05-29T00:01:26;8.00;;;3.78;;
37455;SDS011;23316;50.718;7.328;2023-05-29T00:03:54;8.50;;;3.78;;
37455;SDS011;23316;50.718;7.328;2023-05-29T00:06:21;16.88;;;4.30;;
37455;SDS011;23316;50.718;7.328;2023-05-29T00:08:48;8.82;;;3.90;;
37455;SDS011;23316;50.718;7.328;2023-05-29T00:11:15;10.52;;;4.15;;
37455;SDS011;23316;50.718;7.328;2023-05-29T00:13:44;10.73;;;4.10;;
37455;SDS011;23316;50.718;7.328;2023-05-29T00:16:11;9.57;;;4.18;;
37455;SDS011;23316;50.718;7.328;2023-05-29T00:18:38;9.90;;;4.32;;
37455;SDS011;23316;50.718;7.328;2023-05-29T00:21:10;12.85;;;4.38;;
37455;SDS011;23316;50.718;7.328;2023-05-29T00:23:39;10.13;;;4.15;;
37455;SDS011;23316;50.718;7.328;2023-05-29T00:26:06;9.02;;;4.50;;
37455;SDS011;23316;50.718;7.328;2023-05-29T00:28:34;7.38;;;3.45;;
37455;SDS011;23316;50.718;7.328;2023-05-29T00:31:04;9.80;;;4.03;;
37455;SDS011;23316;50.718;7.328;2023-05-29T00:33:31;8.13;;;4.20;;
37455;SDS011;23316;50.718;7.328;2023-05-29T00:35:58;12.02;;;4.82;;
37455;SDS011;23316;50.718;7.328;2023-05-29T00:38:25;11.27;;;4.28;;
37455;SDS011;23316;50.718;7.328;2023-05-29T00:40:53;11.15;;;4.65;;
37455;SDS011;23316;50.718;7.328;2023-05-29T00:43:20;9.77;;;4.30;;
37455;SDS011;23316;50.718;7.328;2023-05-29T00:45:47;10.55;;;4.35;;
37455;SDS011;23316;50.718;7.328;2023-05-29T00:48:16;9.35;;;4.80;;
37455;SDS011;23316;50.718;7.328;2023-05-29T00:50:44;10.77;;;4.47;;
37455;SDS011;23316;50.718;7.328;2023-05-29T00:53:11;8.07;;;4.13;;
37455;SDS011;23316;50.718;7.328;2023-05-29T00:55:40;10.10;;;4.72;;
37455;SDS011;23316;50.718;7.328;2023-05-29T00:58:08;11.70;;;4.45;;
37455;SDS011;23316;50.718;7.328;2023-05-29T01:00:35;7.80;;;3.95;;
37455;SDS011;23316;50.718;7.328;2023-05-29T01:03:04;8.48;;;4.10;;
37455;SDS011;23316;50.718;7.328;2023-05-29T01:05:35;12.77;;;4.88;;
37455;SDS011;23316;50.718;7.328;2023-05-29T01:08:02;8.48;;;4.10;;
37455;SDS011;23316;50.718;7.328;2023-05-29T01:10:29;14.93;;;4.78;;
37455;SDS011;23316;50.718;7.328;2023-05-29T01:12:57;12.05;;;4.80;;
37455;SDS011;23316;50.718;7.328;2023-05-29T01:15:33;10.75;;;4.53;;
37455;SDS011;23316;50.718;7.328;2023-05-29T01:18:07;9.10;;;4.20;;
37455;SDS011;23316;50.718;7.328;2023-05-29T01:20:47;13.40;;;4.80;;
37455;SDS011;23316;50.718;7.328;2023-05-29T01:26:42;9.70;;;4.82;;
37455;SDS011;23316;50.718;7.328;2023-05-29T01:29:14;13.23;;;4.80;;
37455;SDS011;23316;50.718;7.328;2023-05-29T01:31:45;16.02;;;4.90;;
37455;SDS011;23316;50.718;7.328;2023-05-29T01:34:13;14.80;;;4.97;;
37455;SDS011;23316;50.718;7.328;2023-05-29T01:36:41;12.38;;;4.28;;
37455;SDS011;23316;50.718;7.328;2023-05-29T01:39:08;13.15;;;4.75;;
37455;SDS011;23316;50.718;7.328;2023-05-29T01:41:36;10.10;;;4.70;;
37455;SDS011;23316;50.718;7.328;2023-05-29T01:44:06;11.30;;;5.07;;
37455;SDS011;23316;50.718;7.328;2023-05-29T01:46:35;12.98;;;5.03;;
37455;SDS011;23316;50.718;7.328;2023-05-29T01:49:03;9.73;;;4.57;;
37455;SDS011;23316;50.718;7.328;2023-05-29T01:51:31;11.38;;;4.78;;
37455;SDS011;23316;50.718;7.328;2023-05-29T01:53:59;11.52;;;4.82;;
37455;SDS011;23316;50.718;7.328;2023-05-29T01:56:27;9.23;;;4.63;;
37455;SDS011;23316;50.718;7.328;2023-05-29T01:58:55;15.05;;;5.43;;
37455;SDS011;23316;50.718;7.328;2023-05-29T02:01:25;10.45;;;4.82;;
37455;SDS011;23316;50.718;7.328;2023-05-29T02:03:52;10.48;;;4.90;;
37455;SDS011;23316;50.718;7.328;2023-05-29T02:06:19;10.02;;;4.68;;
37455;SDS011;23316;50.718;7.328;2023-05-29T02:08:47;11.05;;;4.90;;
37455;SDS011;23316;50.718;7.328;2023-05-29T02:11:14;11.52;;;4.78;;
37455;SDS011;23316;50.718;7.328;2023-05-29T02:13:41;12.40;;;4.90;;
37455;SDS011;23316;50.718;7.328;2023-05-29T02:16:09;10.98;;;5.10;;
37455;SDS011;23316;50.718;7.328;2023-05-29T02:18:38;11.88;;;4.70;;
37455;SDS011;23316;50.718;7.328;2023-05-29T02:21:06;12.63;;;5.15;;
37455;SDS011;23316;50.718;7.328;2023-05-29T02:23:34;12.48;;;5.60;;
37455;SDS011;23316;50.718;7.328;2023-05-29T02:26:01;9.18;;;4.72;;
37455;SDS011;23316;50.718;7.328;2023-05-29T02:28:28;13.45;;;4.95;;
37455;SDS011;23316;50.718;7.328;2023-05-29T02:30:56;11.65;;;4.68;;
37455;SDS011;23316;50.718;7.328;2023-05-29T02:33:23;12.43;;;4.88;;
37455;SDS011;23316;50.718;7.328;2023-05-29T02:35:51;10.73;;;4.90;;
37455;SDS011;23316;50.718;7.328;2023-05-29T02:38:19;13.68;;;5.03;;
37455;SDS011;23316;50.718;7.328;2023-05-29T02:40:46;10.38;;;4.80;;
37455;SDS011;23316;50.718;7.328;2023-05-29T02:43:13;11.77;;;5.20;;
37455;SDS011;23316;50.718;7.328;2023-05-29T02:45:41;12.80;;;5.35;;
37455;SDS011;23316;50.718;7.328;2023-05-29T02:48:08;17.40;;;5.15;;
37455;SDS011;23316;50.718;7.328;2023-05-29T02:50:35;12.90;;;4.82;;
37455;SDS011;23316;50.718;7.328;2023-05-29T02:53:04;15.57;;;5.20;;
37455;SDS011;23316;50.718;7.328;2023-05-29T02:55:31;11.13;;;5.30;;
37455;SDS011;23316;50.718;7.328;2023-05-29T02:58:01;11.77;;;5.32;;
37455;SDS011;23316;50.718;7.328;2023-05-29T03:00:28;15.13;;;5.55;;
37455;SDS011;23316;50.718;7.328;2023-05-29T03:02:56;12.52;;;5.50;;
37455;SDS011;23316;50.718;7.328;2023-05-29T03:05:23;10.10;;;4.38;;
37455;SDS011;23316;50.718;7.328;2023-05-29T03:07:51;7.18;;;4.78;;
37455;SDS011;23316;50.718;7.328;2023-05-29T03:10:19;10.18;;;4.93;;
37455;SDS011;23316;50.718;7.328;2023-05-29T03:12:47;11.50;;;5.15;;
37455;SDS011;23316;50.718;7.328;2023-05-29T03:15:15;10.55;;;4.68;;
37455;SDS011;23316;50.718;7.328;2023-05-29T03:17:42;10.75;;;4.75;;
37455;SDS011;23316;50.718;7.328;2023-05-29T03:20:10;8.43;;;4.85;;
37455;SDS011;23316;50.718;7.328;2023-05-29T03:22:37;14.13;;;4.80;;
37455;SDS011;23316;50.718;7.328;2023-05-29T03:25:05;12.98;;;5.38;;
37455;SDS011;23316;50.718;7.328;2023-05-29T03:27:34;16.13;;;5.90;;
37455;SDS011;23316;50.718;7.328;2023-05-29T03:30:02;14.38;;;4.88;;
37455;SDS011;23316;50.718;7.328;2023-05-29T03:32:29;9.70;;;5.50;;
37455;SDS011;23316;50.718;7.328;2023-05-29T03:34:57;9.73;;;4.60;;
37455;SDS011;23316;50.718;7.328;2023-05-29T03:37:24;15.23;;;5.55;;
37455;SDS011;23316;50.718;7.328;2023-05-29T03:39:51;13.90;;;5.47;;
37455;SDS011;23316;50.718;7.328;2023-05-29T03:42:19;9.63;;;5.60;;
37455;SDS011;23316;50.718;7.328;2023-05-29T03:44:48;12.27;;;5.10;;
37455;SDS011;23316;50.718;7.328;2023-05-29T03:47:15;11.75;;;4.80;;
37455;SDS011;23316;50.718;7.328;2023-05-29T03:49:43;7.85;;;4.75;;
37455;SDS011;23316;50.718;7.328;2023-05-29T03:52:10;9.07;;;5.00;;
37455;SDS011;23316;50.718;7.328;2023-05-29T03:54:37;10.80;;;5.18;;
37455;SDS011;23316;50.718;7.328;2023-05-29T03:57:05;10.18;;;5.57;;
37455;SDS011;23316;50.718;7.328;2023-05-29T03:59:32;10.00;;;4.75;;
37455;SDS011;23316;50.718;7.328;2023-05-29T04:02:01;9.40;;;4.82;;
37455;SDS011;23316;50.718;7.328;2023-05-29T04:04:28;13.02;;;5.13;;
37455;SDS011;23316;50.718;7.328;2023-05-29T04:06:56;10.50;;;5.28;;
37455;SDS011;23316;50.718;7.328;2023-05-29T04:09:23;11.27;;;5.57;;
37455;SDS011;23316;50.718;7.328;2023-05-29T04:11:50;15.05;;;5.78;;
37455;SDS011;23316;50.718;7.328;2023-05-29T04:14:20;17.15;;;5.65;;
37455;SDS011;23316;50.718;7.328;2023-05-29T04:16:47;9.65;;;5.40;;
37455;SDS011;23316;50.718;7.328;2023-05-29T04:19:16;9.60;;;4.90;;
37455;SDS011;23316;50.718;7.328;2023-05-29T04:21:43;8.82;;;4.82;;
37455;SDS011;23316;50.718;7.328;2023-05-29T04:24:13;12.27;;;5.22;;
37455;SDS011;23316;50.718;7.328;2023-05-29T04:26:40;15.18;;;5.07;;
37455;SDS011;23316;50.718;7.328;2023-05-29T04:29:08;9.38;;;5.07;;
37455;SDS011;23316;50.718;7.328;2023-05-29T04:31:38;10.90;;;5.22;;
37455;SDS011;23316;50.718;7.328;2023-05-29T04:34:05;13.50;;;5.25;;
37455;SDS011;23316;50.718;7.328;2023-05-29T04:36:34;14.02;;;6.20;;
37455;SDS011;23316;50.718;7.328;2023-05-29T04:39:04;11.73;;;4.97;;
37455;SDS011;23316;50.718;7.328;2023-05-29T04:41:32;9.77;;;5.35;;
37455;SDS011;23316;50.718;7.328;2023-05-29T04:44:00;11.13;;;5.35;;
37455;SDS011;23316;50.718;7.328;2023-05-29T04:46:29;10.57;;;5.30;;
37455;SDS011;23316;50.718;7.328;2023-05-29T04:48:56;10.68;;;5.85;;
37455;SDS011;23316;50.718;7.328;2023-05-29T04:51:24;13.15;;;5.97;;
37455;SDS011;23316;50.718;7.328;2023-05-29T04:53:55;14.32;;;5.88;;
37455;SDS011;23316;50.718;7.328;2023-05-29T04:56:23;12.82;;;5.35;;
37455;SDS011;23316;50.718;7.328;2023-05-29T04:58:52;11.40;;;5.70;;
37455;SDS011;23316;50.718;7.328;2023-05-29T05:01:19;8.93;;;4.70;;
37455;SDS011;23316;50.718;7.328;2023-05-29T05:03:47;10.73;;;5.65;;
37455;SDS011;23316;50.718;7.328;2023-05-29T05:06:14;10.05;;;5.80;;
37455;SDS011;23316;50.718;7.328;2023-05-29T05:08:42;8.48;;;5.20;;
37455;SDS011;23316;50.718;7.328;2023-05-29T05:11:11;11.10;;;5.90;;
37455;SDS011;23316;50.718;7.328;2023-05-29T05:13:39;15.57;;;5.60;;
37455;SDS011;23316;50.718;7.328;2023-05-29T05:16:06;18.63;;;5.90;;
37455;SDS011;23316;50.718;7.328;2023-05-29T05:18:34;9.68;;;5.53;;
37455;SDS011;23316;50.718;7.328;2023-05-29T05:21:02;11.63;;;5.65;;
37455;SDS011;23316;50.718;7.328;2023-05-29T05:23:31;11.95;;;5.75;;
37455;SDS011;23316;50.718;7.328;2023-05-29T05:25:58;12.38;;;6.30;;
37455;SDS011;23316;50.718;7.328;2023-05-29T05:28:27;11.40;;;5.60;;
37455;SDS011;23316;50.718;7.328;2023-05-29T05:30:54;11.88;;;5.68;;
37455;SDS011;23316;50.718;7.328;2023-05-29T05:33:22;12.85;;;6.22;;
37455;SDS011;23316;50.718;7.328;2023-05-29T05:35:49;9.38;;;5.63;;
37455;SDS011;23316;50.718;7.328;2023-05-29T05:38:16;13.00;;;6.10;;
37455;SDS011;23316;50.718;7.328;2023-05-29T05:40:44;15.00;;;6.32;;
37455;SDS011;23316;50.718;7.328;2023-05-29T05:43:12;14.07;;;5.90;;
37455;SDS011;23316;50.718;7.328;2023-05-29T05:45:40;10.68;;;5.88;;
37455;SDS011;23316;50.718;7.328;2023-05-29T05:48:08;10.60;;;5.82;;
37455;SDS011;23316;50.718;7.328;2023-05-29T05:50:35;16.77;;;6.38;;
37455;SDS011;23316;50.718;7.328;2023-05-29T05:53:03;13.90;;;5.80;;
37455;SDS011;23316;50.718;7.328;2023-05-29T05:55:30;13.93;;;6.72;;
37455;SDS011;23316;50.718;7.328;2023-05-29T05:57:57;18.20;;;6.68;;
37455;SDS011;23316;50.718;7.328;2023-05-29T06:00:25;20.67;;;6.90;;
37455;SDS011;23316;50.718;7.328;2023-05-29T06:02:55;13.23;;;6.35;;
37455;SDS011;23316;50.718;7.328;2023-05-29T06:05:23;12.65;;;6.00;;
37455;SDS011;23316;50.718;7.328;2023-05-29T06:07:50;16.13;;;6.72;;
37455;SDS011;23316;50.718;7.328;2023-05-29T06:10:18;17.90;;;7.05;;
37455;SDS011;23316;50.718;7.328;2023-05-29T06:12:45;16.02;;;6.85;;
37455;SDS011;23316;50.718;7.328;2023-05-29T06:15:12;11.88;;;5.57;;
37455;SDS011;23316;50.718;7.328;2023-05-29T06:17:40;17.52;;;7.10;;
37455;SDS011;23316;50.718;7.328;2023-05-29T06:20:09;16.13;;;6.47;;
37455;SDS011;23316;50.718;7.328;2023-05-29T06:22:37;12.32;;;6.65;;
37455;SDS011;23316;50.718;7.328;2023-05-29T06:25:04;12.98;;;6.53;;
37455;SDS011;23316;50.718;7.328;2023-05-29T06:27:32;14.52;;;5.72;;
37455;SDS011;23316;50.718;7.328;2023-05-29T06:29:59;13.88;;;6.32;;
37455;SDS011;23316;50.718;7.328;2023-05-29T06:32:27;11.90;;;6.15;;
37455;SDS011;23316;50.718;7.328;2023-05-29T06:34:54;13.70;;;6.95;;
37455;SDS011;23316;50.718;7.328;2023-05-29T06:37:23;20.05;;;7.63;;
37455;SDS011;23316;50.718;7.328;2023-05-29T06:39:51;13.05;;;7.03;;
37455;SDS011;23316;50.718;7.328;2023-05-29T06:42:18;12.70;;;6.70;;
37455;SDS011;23316;50.718;7.328;2023-05-29T06:44:46;14.02;;;6.22;;
37455;SDS011;23316;50.718;7.328;2023-05-29T06:47:13;16.10;;;7.00;;
37455;SDS011;23316;50.718;7.328;2023-05-29T06:49:41;11.60;;;6.05;;
37455;SDS011;23316;50.718;7.328;2023-05-29T06:52:09;15.00;;;6.85;;
37455;SDS011;23316;50.718;7.328;2023-05-29T06:54:37;15.05;;;7.07;;
37455;SDS011;23316;50.718;7.328;2023-05-29T06:57:05;12.75;;;6.32;;
37455;SDS011;23316;50.718;7.328;2023-05-29T06:59:33;16.17;;;6.65;;
37455;SDS011;23316;50.718;7.328;2023-05-29T07:02:00;16.20;;;7.43;;
37455;SDS011;23316;50.718;7.328;2023-05-29T07:04:28;12.48;;;6.05;;
37455;SDS011;23316;50.718;7.328;2023-05-29T07:06:55;16.13;;;6.80;;
37455;SDS011;23316;50.718;7.328;2023-05-29T07:09:23;12.95;;;6.28;;
37455;SDS011;23316;50.718;7.328;2023-05-29T07:11:52;12.88;;;6.72;;
37455;SDS011;23316;50.718;7.328;2023-05-29T07:14:20;15.82;;;6.82;;
37455;SDS011;23316;50.718;7.328;2023-05-29T07:16:47;17.33;;;7.25;;
37455;SDS011;23316;50.718;7.328;2023-05-29T07:19:14;16.83;;;6.72;;
37455;SDS011;23316;50.718;7.328;2023-05-29T07:21:42;11.90;;;5.65;;
37455;SDS011;23316;50.718;7.328;2023-05-29T07:24:10;13.13;;;6.13;;
37455;SDS011;23316;50.718;7.328;2023-05-29T07:26:37;12.82;;;6.03;;
37455;SDS011;23316;50.718;7.328;2023-05-29T07:29:06;12.32;;;6.38;;
37455;SDS011;23316;50.718;7.328;2023-05-29T07:31:34;12.75;;;6.28;;
37455;SDS011;23316;50.718;7.328;2023-05-29T07:34:01;16.90;;;7.45;;
37455;SDS011;23316;50.718;7.328;2023-05-29T07:36:29;16.48;;;6.40;;
37455;SDS011;23316;50.718;7.328;2023-05-29T07:38:57;18.83;;;6.13;;
37455;SDS011;23316;50.718;7.328;2023-05-29T07:41:26;13.02;;;5.45;;
37455;SDS011;23316;50.718;7.328;2023-05-29T07:43:53;11.77;;;6.22;;
37455;SDS011;23316;50.718;7.328;2023-05-29T07:46:23;13.65;;;6.32;;
37455;SDS011;23316;50.718;7.328;2023-05-29T07:48:50;18.85;;;6.93;;
37455;SDS011;23316;50.718;7.328;2023-05-29T07:51:17;16.45;;;6.75;;
37455;SDS011;23316;50.718;7.328;2023-05-29T07:53:45;12.50;;;5.95;;
37455;SDS011;23316;50.718;7.328;2023-05-29T07:56:12;14.38;;;6.53;;
37455;SDS011;23316;50.718;7.328;2023-05-29T07:58:40;17.77;;;6.63;;
37455;SDS011;23316;50.718;7.328;2023-05-29T08:01:07;13.90;;;6.43;;
37455;SDS011;23316;50.718;7.328;2023-05-29T08:03:36;16.38;;;6.22;;
37455;SDS011;23316;50.718;7.328;2023-05-29T08:06:04;18.98;;;7.03;;
37455;SDS011;23316;50.718;7.328;2023-05-29T08:08:31;12.38;;;6.00;;
37455;SDS011;23316;50.718;7.328;2023-05-29T08:10:58;18.88;;;7.32;;
37455;SDS011;23316;50.718;7.328;2023-05-29T08:13:26;15.82;;;6.65;;
37455;SDS011;23316;50.718;7.328;2023-05-29T08:15:53;11.90;;;6.40;;
37455;SDS011;23316;50.718;7.328;2023-05-29T08:18:25;16.85;;;6.47;;
37455;SDS011;23316;50.718;7.328;2023-05-29T08:20:54;18.73;;;6.70;;
37455;SDS011;23316;50.718;7.328;2023-05-29T08:23:21;17.40;;;6.55;;
37455;SDS011;23316;50.718;7.328;2023-05-29T08:25:49;16.45;;;6.53;;
37455;SDS011;23316;50.718;7.328;2023-05-29T08:28:16;16.50;;;6.47;;
37455;SDS011;23316;50.718;7.328;2023-05-29T08:30:43;17.52;;;6.10;;
37455;SDS011;23316;50.718;7.328;2023-05-29T08:33:11;17.85;;;7.53;;
37455;SDS011;23316;50.718;7.328;2023-05-29T08:35:38;20.58;;;7.15;;
37455;SDS011;23316;50.718;7.328;2023-05-29T08:38:07;18.20;;;7.13;;
37455;SDS011;23316;50.718;7.328;2023-05-29T08:40:34;16.17;;;6.63;;
37455;SDS011;23316;50.718;7.328;2023-05-29T08:43:02;13.13;;;5.55;;
37455;SDS011;23316;50.718;7.328;2023-05-29T08:45:34;18.73;;;7.05;;
37455;SDS011;23316;50.718;7.328;2023-05-29T08:48:07;9.65;;;5.47;;
37455;SDS011;23316;50.718;7.328;2023-05-29T08:50:37;16.42;;;6.43;;
37455;SDS011;23316;50.718;7.328;2023-05-29T08:53:10;11.35;;;5.57;;
37455;SDS011;23316;50.718;7.328;2023-05-29T08:55:39;16.55;;;6.22;;
37455;SDS011;23316;50.718;7.328;2023-05-29T08:58:06;15.45;;;6.05;;
37455;SDS011;23316;50.718;7.328;2023-05-29T09:00:35;18.30;;;6.25;;
37455;SDS011;23316;50.718;7.328;2023-05-29T09:03:03;12.95;;;5.60;;
37455;SDS011;23316;50.718;7.328;2023-05-29T09:05:30;11.57;;;5.57;;
37455;SDS011;23316;50.718;7.328;2023-05-29T09:07:58;16.30;;;5.72;;
37455;SDS011;23316;50.718;7.328;2023-05-29T09:10:27;14.48;;;5.80;;
37455;SDS011;23316;50.718;7.328;2023-05-29T09:12:55;12.25;;;5.63;;
37455;SDS011;23316;50.718;7.328;2023-05-29T09:15:23;20.60;;;6.15;;
37455;SDS011;23316;50.718;7.328;2023-05-29T09:17:50;15.35;;;6.30;;
37455;SDS011;23316;50.718;7.328;2023-05-29T09:20:19;19.17;;;7.30;;
37455;SDS011;23316;50.718;7.328;2023-05-29T09:22:55;18.15;;;6.65;;
37455;SDS011;23316;50.718;7.328;2023-05-29T09:25:24;16.08;;;5.63;;
37455;SDS011;23316;50.718;7.328;2023-05-29T09:27:54;13.48;;;5.57;;
37455;SDS011;23316;50.718;7.328;2023-05-29T09:30:35;15.00;;;5.63;;
37455;SDS011;23316;50.718;7.328;2023-05-29T09:33:04;14.45;;;5.75;;
37455;SDS011;23316;50.718;7.328;2023-05-29T09:35:32;13.65;;;5.82;;
37455;SDS011;23316;50.718;7.328;2023-05-29T09:38:01;16.17;;;5.47;;
37455;SDS011;23316;50.718;7.328;2023-05-29T09:40:32;18.10;;;6.38;;
37455;SDS011;23316;50.718;7.328;2023-05-29T09:43:08;13.80;;;5.68;;
37455;SDS011;23316;50.718;7.328;2023-05-29T09:45:37;13.10;;;5.95;;
37455;SDS011;23316;50.718;7.328;2023-05-29T09:48:06;14.07;;;5.50;;
37455;SDS011;23316;50.718;7.328;2023-05-29T09:50:34;12.15;;;5.68;;
37455;SDS011;23316;50.718;7.328;2023-05-29T09:53:02;14.07;;;5.05;;
37455;SDS011;23316;50.718;7.328;2023-05-29T09:55:30;16.05;;;5.78;;
37455;SDS011;23316;50.718;7.328;2023-05-29T09:57:59;13.20;;;6.22;;
37455;SDS011;23316;50.718;7.328;2023-05-29T10:00:29;14.55;;;5.80;;
37455;SDS011;23316;50.718;7.328;2023-05-29T10:02:58;12.98;;;5.15;;
37455;SDS011;23316;50.718;7.328;2023-05-29T10:05:25;14.85;;;5.20;;
37455;SDS011;23316;50.718;7.328;2023-05-29T10:07:53;14.18;;;4.97;;
37455;SDS011;23316;50.718;7.328;2023-05-29T10:10:21;14.38;;;5.38;;
37455;SDS011;23316;50.718;7.328;2023-05-29T10:12:52;16.50;;;5.93;;
37455;SDS011;23316;50.718;7.328;2023-05-29T10:15:22;11.60;;;5.15;;
37455;SDS011;23316;50.718;7.328;2023-05-29T10:20:27;13.10;;;4.72;;
37455;SDS011;23316;50.718;7.328;2023-05-29T10:22:55;12.95;;;5.25;;
37455;SDS011;23316;50.718;7.328;2023-05-29T10:25:26;13.50;;;5.00;;
37455;SDS011;23316;50.718;7.328;2023-05-29T10:27:56;9.68;;;4.88;;
37455;SDS011;23316;50.718;7.328;2023-05-29T10:30:26;14.30;;;4.93;;
37455;SDS011;23316;50.718;7.328;2023-05-29T10:33:03;14.13;;;5.75;;
37455;SDS011;23316;50.718;7.328;2023-05-29T10:35:46;15.25;;;4.80;;
37455;SDS011;23316;50.718;7.328;2023-05-29T10:38:16;11.07;;;4.32;;
37455;SDS011;23316;50.718;7.328;2023-05-29T10:40:44;16.75;;;5.65;;
37455;SDS011;23316;50.718;7.328;2023-05-29T10:45:58;11.60;;;4.30;;
37455;SDS011;23316;50.718;7.328;2023-05-29T10:48:43;12.82;;;4.80;;
37455;SDS011;23316;50.718;7.328;2023-05-29T10:51:26;10.25;;;3.92;;
37455;SDS011;23316;50.718;7.328;2023-05-29T10:53:54;14.00;;;4.78;;
37455;SDS011;23316;50.718;7.328;2023-05-29T10:56:22;12.40;;;4.78;;
37455;SDS011;23316;50.718;7.328;2023-05-29T10:58:55;12.50;;;4.32;;
37455;SDS011;23316;50.718;7.328;2023-05-29T11:01:23;9.77;;;4.55;;
37455;SDS011;23316;50.718;7.328;2023-05-29T11:03:53;16.83;;;5.15;;
37455;SDS011;23316;50.718;7.328;2023-05-29T11:06:41;11.63;;;4.68;;
37455;SDS011;23316;50.718;7.328;2023-05-29T11:09:11;12.65;;;4.13;;
37455;SDS011;23316;50.718;7.328;2023-05-29T11:14:45;12.00;;;4.18;;
37455;SDS011;23316;50.718;7.328;2023-05-29T11:20:02;12.30;;;3.97;;
37455;SDS011;23316;50.718;7.328;2023-05-29T11:22:34;11.65;;;4.45;;
37455;SDS011;23316;50.718;7.328;2023-05-29T11:25:20;14.00;;;5.13;;
37455;SDS011;23316;50.718;7.328;2023-05-29T11:27:48;11.90;;;3.95;;
37455;SDS011;23316;50.718;7.328;2023-05-29T11:30:17;12.10;;;4.35;;
37455;SDS011;23316;50.718;7.328;2023-05-29T11:32:45;14.23;;;5.03;;
37455;SDS011;23316;50.718;7.328;2023-05-29T11:35:14;11.35;;;4.22;;
37455;SDS011;23316;50.718;7.328;2023-05-29T11:37:42;12.85;;;4.07;;
37455;SDS011;23316;50.718;7.328;2023-05-29T11:40:12;10.70;;;4.25;;
37455;SDS011;23316;50.718;7.328;2023-05-29T11:42:41;11.50;;;4.60;;
37455;SDS011;23316;50.718;7.328;2023-05-29T11:45:11;13.70;;;4.28;;
37455;SDS011;23316;50.718;7.328;2023-05-29T11:47:52;12.50;;;4.40;;
37455;SDS011;23316;50.718;7.328;2023-05-29T11:50:24;13.33;;;4.40;;
37455;SDS011;23316;50.718;7.328;2023-05-29T11:52:53;10.82;;;3.15;;
37455;SDS011;23316;50.718;7.328;2023-05-29T11:55:22;16.55;;;4.10;;
37455;SDS011;23316;50.718;7.328;2023-05-29T11:57:50;11.45;;;4.22;;
37455;SDS011;23316;50.718;7.328;2023-05-29T12:00:19;14.75;;;4.30;;
37455;SDS011;23316;50.718;7.328;2023-05-29T12:02:47;13.20;;;4.13;;
37455;SDS011;23316;50.718;7.328;2023-05-29T12:05:16;12.00;;;4.55;;
37455;SDS011;23316;50.718;7.328;2023-05-29T12:07:49;13.48;;;4.35;;
37455;SDS011;23316;50.718;7.328;2023-05-29T12:10:18;10.85;;;4.20;;
37455;SDS011;23316;50.718;7.328;2023-05-29T12:12:47;20.42;;;4.47;;
37455;SDS011;23316;50.718;7.328;2023-05-29T12:15:17;12.93;;;3.72;;
37455;SDS011;23316;50.718;7.328;2023-05-29T12:17:44;18.90;;;4.85;;
37455;SDS011;23316;50.718;7.328;2023-05-29T12:20:12;11.98;;;3.83;;
37455;SDS011;23316;50.718;7.328;2023-05-29T12:22:41;13.75;;;4.35;;
37455;SDS011;23316;50.718;7.328;2023-05-29T12:25:10;11.88;;;3.78;;
37455;SDS011;23316;50.718;7.328;2023-05-29T12:27:39;11.70;;;3.95;;
37455;SDS011;23316;50.718;7.328;2023-05-29T12:30:12;16.10;;;4.43;;
37455;SDS011;23316;50.718;7.328;2023-05-29T12:32:41;14.48;;;3.50;;
37455;SDS011;23316;50.718;7.328;2023-05-29T12:35:11;13.80;;;4.35;;
37455;SDS011;23316;50.718;7.328;2023-05-29T12:37:43;13.98;;;4.07;;
37455;SDS011;23316;50.718;7.328;2023-05-29T12:40:16;14.95;;;3.92;;
37455;SDS011;23316;50.718;7.328;2023-05-29T12:42:45;12.73;;;3.70;;
37455;SDS011;23316;50.718;7.328;2023-05-29T12:45:14;12.70;;;4.40;;
37455;SDS011;23316;50.718;7.328;2023-05-29T12:47:50;11.35;;;3.40;;
37455;SDS011;23316;50.718;7.328;2023-05-29T12:50:19;12.98;;;4.22;;
37455;SDS011;23316;50.718;7.328;2023-05-29T12:52:54;12.30;;;3.80;;
37455;SDS011;23316;50.718;7.328;2023-05-29T12:55:26;11.48;;;3.58;;
37455;SDS011;23316;50.718;7.328;2023-05-29T12:57:54;13.02;;;4.10;;
37455;SDS011;23316;50.718;7.328;2023-05-29T13:00:21;17.63;;;4.30;;
37455;SDS011;23316;50.718;7.328;2023-05-29T13:02:50;15.00;;;3.83;;
37455;SDS011;23316;50.718;7.328;2023-05-29T13:05:18;13.32;;;3.67;;
37455;SDS011;23316;50.718;7.328;2023-05-29T13:07:48;10.15;;;3.55;;
37455;SDS011;23316;50.718;7.328;2023-05-29T13:10:15;14.90;;;3.60;;
37455;SDS011;23316;50.718;7.328;2023-05-29T13:12:44;12.93;;;4.38;;
37455;SDS011;23316;50.718;7.328;2023-05-29T13:15:12;9.85;;;3.90;;
37455;SDS011;23316;50.718;7.328;2023-05-29T13:17:40;9.60;;;3.42;;
37455;SDS011;23316;50.718;7.328;2023-05-29T13:20:09;15.38;;;4.32;;
37455;SDS011;23316;50.718;7.328;2023-05-29T13:22:37;12.90;;;4.00;;
37455;SDS011;23316;50.718;7.328;2023-05-29T13:25:05;17.58;;;4.43;;
37455;SDS011;23316;50.718;7.328;2023-05-29T13:27:35;21.52;;;4.10;;
37455;SDS011;23316;50.718;7.328;2023-05-29T13:30:05;14.40;;;3.47;;
37455;SDS011;23316;50.718;7.328;2023-05-29T13:32:33;18.73;;;4.15;;
37455;SDS011;23316;50.718;7.328;2023-05-29T13:35:01;12.45;;;4.18;;
37455;SDS011;23316;50.718;7.328;2023-05-29T13:37:28;15.60;;;4.07;;
37455;SDS011;23316;50.718;7.328;2023-05-29T13:39:56;13.02;;;4.47;;
37455;SDS011;23316;50.718;7.328;2023-05-29T13:42:23;14.68;;;3.88;;
37455;SDS011;23316;50.718;7.328;2023-05-29T13:44:51;15.27;;;4.28;;
37455;SDS011;23316;50.718;7.328;2023-05-29T13:47:21;9.93;;;3.80;;
37455;SDS011;23316;50.718;7.328;2023-05-29T13:49:48;12.25;;;4.03;;
37455;SDS011;23316;50.718;7.328;2023-05-29T13:52:16;13.13;;;4.18;;
37455;SDS011;23316;50.718;7.328;2023-05-29T13:54:43;12.07;;;3.72;;
37455;SDS011;23316;50.718;7.328;2023-05-29T13:57:10;14.57;;;4.18;;
37455;SDS011;23316;50.718;7.328;2023-05-29T13:59:38;9.40;;;3.22;;
37455;SDS011;23316;50.718;7.328;2023-05-29T14:02:05;13.02;;;3.95;;
37455;SDS011;23316;50.718;7.328;2023-05-29T14:04:35;11.65;;;3.92;;
37455;SDS011;23316;50.718;7.328;2023-05-29T14:07:04;13.10;;;3.92;;
37455;SDS011;23316;50.718;7.328;2023-05-29T14:09:31;13.43;;;3.95;;
37455;SDS011;23316;50.718;7.328;2023-05-29T14:11:59;12.40;;;3.40;;
37455;SDS011;23316;50.718;7.328;2023-05-29T14:14:27;11.75;;;4.05;;
37455;SDS011;23316;50.718;7.328;2023-05-29T14:16:55;12.02;;;3.70;;
37455;SDS011;23316;50.718;7.328;2023-05-29T14:19:22;12.40;;;4.50;;
37455;SDS011;23316;50.718;7.328;2023-05-29T14:21:51;10.00;;;3.65;;
37455;SDS011;23316;50.718;7.328;2023-05-29T14:24:18;11.02;;;3.83;;
37455;SDS011;23316;50.718;7.328;2023-05-29T14:26:46;13.18;;;3.75;;
37455;SDS011;23316;50.718;7.328;2023-05-29T14:29:14;11.60;;;3.53;;
37455;SDS011;23316;50.718;7.328;2023-05-29T14:31:41;7.97;;;3.38;;
37455;SDS011;23316;50.718;7.328;2023-05-29T14:34:09;7.45;;;3.38;;
37455;SDS011;23316;50.718;7.328;2023-05-29T14:36:36;16.20;;;4.18;;
37455;SDS011;23316;50.718;7.328;2023-05-29T14:39:05;26.60;;;4.32;;
37455;SDS011;23316;50.718;7.328;2023-05-29T14:41:32;14.48;;;4.25;;
37455;SDS011;23316;50.718;7.328;2023-05-29T14:44:00;10.00;;;3.53;;
37455;SDS011;23316;50.718;7.328;2023-05-29T14:46:27;12.07;;;3.67;;
37455;SDS011;23316;50.718;7.328;2023-05-29T14:48:57;9.10;;;3.40;;
37455;SDS011;23316;50.718;7.328;2023-05-29T14:51:25;11.52;;;4.03;;
37455;SDS011;23316;50.718;7.328;2023-05-29T14:53:52;16.15;;;4.15;;
37455;SDS011;23316;50.718;7.328;2023-05-29T14:56:21;8.00;;;3.50;;
37455;SDS011;23316;50.718;7.328;2023-05-29T14:58:48;15.35;;;4.30;;